sensor_id;sensor_type;location;lat;lon;timestamp;temperature;humidity
69679;DHT22;56915;52.046;4.854;2023-02-28T00:01:26;1.70;94.20
69679;DHT22;56915;52.046;4.854;2023-02-28T00:03:54;1.70;94.70
69679;DHT22;56915;52.046;4.854;2023-02-28T00:06:20;1.80;94.80
69679;DHT22;56915;52.046;4.854;2023-02-28T00:08:47;1.80;94.80
69679;DHT22;56915;52.046;4.854;2023-02-28T00:11:15;1.90;94.90
69679;DHT22;56915;52.046;4.854;2023-02-28T00:13:44;1.90;94.80
69679;DHT22;56915;52.046;4.854;2023-02-28T00:16:19;2.00;94.70
69679;DHT22;56915;52.046;4.854;2023-02-28T00:18:47;2.00;94.60
69679;DHT22;56915;52.046;4.854;2023-02-28T00:21:15;2.00;94.60
69679;DHT22;56915;52.046;4.854;2023-02-28T00:23:43;2.10;94.60
69679;DHT22;56915;52.046;4.854;2023-02-28T00:26:10;2.10;94.60
69679;DHT22;56915;52.046;4.854;2023-02-28T00:28:37;2.10;94.70
69679;DHT22;56915;52.046;4.854;2023-02-28T00:31:04;2.20;94.70
69679;DHT22;56915;52.046;4.854;2023-02-28T00:33:31;2.20;94.70
69679;DHT22;56915;52.046;4.854;2023-02-28T00:36:09;2.20;94.80
69679;DHT22;56915;52.046;4.854;2023-02-28T00:38:37;2.30;95.00
69679;DHT22;56915;52.046;4.854;2023-02-28T00:41:04;2.30;95.10
69679;DHT22;56915;52.046;4.854;2023-02-28T00:43:36;2.40;95.10
69679;DHT22;56915;52.046;4.854;2023-02-28T00:46:04;2.40;95.20
69679;DHT22;56915;52.046;4.854;2023-02-28T00:48:31;2.40;95.10
69679;DHT22;56915;52.046;4.854;2023-02-28T00:50:58;2.50;95.10
69679;DHT22;56915;52.046;4.854;2023-02-28T00:53:25;2.50;95.40
69679;DHT22;56915;52.046;4.854;2023-02-28T00:55:54;2.50;95.00
69679;DHT22;56915;52.046;4.854;2023-02-28T00:58:20;2.60;95.30
69679;DHT22;56915;52.046;4.854;2023-02-28T01:00:47;2.60;95.00
69679;DHT22;56915;52.046;4.854;2023-02-28T01:03:16;2.60;95.00
69679;DHT22;56915;52.046;4.854;2023-02-28T01:05:44;2.60;95.00
69679;DHT22;56915;52.046;4.854;2023-02-28T01:08:12;2.70;95.20
69679;DHT22;56915;52.046;4.854;2023-02-28T01:10:40;2.70;95.60
69679;DHT22;56915;52.046;4.854;2023-02-28T01:13:07;2.80;95.20
69679;DHT22;56915;52.046;4.854;2023-02-28T01:15:34;2.80;95.20
69679;DHT22;56915;52.046;4.854;2023-02-28T01:18:01;2.80;95.00
69679;DHT22;56915;52.046;4.854;2023-02-28T01:20:28;2.90;95.00
69679;DHT22;56915;52.046;4.854;2023-02-28T01:22:55;2.90;94.90
69679;DHT22;56915;52.046;4.854;2023-02-28T01:25:22;2.90;95.00
69679;DHT22;56915;52.046;4.854;2023-02-28T01:27:48;3.00;95.20
69679;DHT22;56915;52.046;4.854;2023-02-28T01:30:15;3.00;95.10
69679;DHT22;56915;52.046;4.854;2023-02-28T01:32:42;3.00;94.80
69679;DHT22;56915;52.046;4.854;2023-02-28T01:35:09;3.00;94.80
69679;DHT22;56915;52.046;4.854;2023-02-28T01:37:36;3.00;94.70
69679;DHT22;56915;52.046;4.854;2023-02-28T01:40:03;3.00;94.60
69679;DHT22;56915;52.046;4.854;2023-02-28T01:42:30;3.00;94.60
69679;DHT22;56915;52.046;4.854;2023-02-28T01:45:27;3.00;95.00
69679;DHT22;56915;52.046;4.854;2023-02-28T01:48:02;3.00;95.00
69679;DHT22;56915;52.046;4.854;2023-02-28T01:50:36;3.10;94.70
69679;DHT22;56915;52.046;4.854;2023-02-28T01:53:07;3.10;94.70
69679;DHT22;56915;52.046;4.854;2023-02-28T01:55:36;3.10;94.60
69679;DHT22;56915;52.046;4.854;2023-02-28T01:58:05;3.10;94.60
69679;DHT22;56915;52.046;4.854;2023-02-28T02:00:33;3.00;94.80
69679;DHT22;56915;52.046;4.854;2023-02-28T02:03:07;3.00;94.60
69679;DHT22;56915;52.046;4.854;2023-02-28T02:05:38;3.00;94.60
69679;DHT22;56915;52.046;4.854;2023-02-28T02:08:17;3.00;94.70
69679;DHT22;56915;52.046;4.854;2023-02-28T02:10:54;3.00;94.80
69679;DHT22;56915;52.046;4.854;2023-02-28T02:18:53;3.10;94.80
69679;DHT22;56915;52.046;4.854;2023-02-28T02:24:52;3.10;95.10
69679;DHT22;56915;52.046;4.854;2023-02-28T02:36:23;3.20;94.80
69679;DHT22;56915;52.046;4.854;2023-02-28T02:39:01;3.20;94.80
69679;DHT22;56915;52.046;4.854;2023-02-28T02:42:14;3.20;94.80
69679;DHT22;56915;52.046;4.854;2023-02-28T02:44:26;3.20;94.80
69679;DHT22;56915;52.046;4.854;2023-02-28T02:47:06;3.20;94.80
69679;DHT22;56915;52.046;4.854;2023-02-28T02:49:37;3.20;94.70
69679;DHT22;56915;52.046;4.854;2023-02-28T02:52:08;3.30;94.80
69679;DHT22;56915;52.046;4.854;2023-02-28T02:54:38;3.30;94.80
69679;DHT22;56915;52.046;4.854;2023-02-28T02:57:15;3.30;94.80
69679;DHT22;56915;52.046;4.854;2023-02-28T02:59:44;3.30;95.00
69679;DHT22;56915;52.046;4.854;2023-02-28T03:02:12;3.30;95.00
69679;DHT22;56915;52.046;4.854;2023-02-28T03:04:43;3.30;95.10
69679;DHT22;56915;52.046;4.854;2023-02-28T03:07:12;3.30;95.10
69679;DHT22;56915;52.046;4.854;2023-02-28T03:09:39;3.40;95.40
69679;DHT22;56915;52.046;4.854;2023-02-28T03:12:09;3.40;95.10
69679;DHT22;56915;52.046;4.854;2023-02-28T03:23:17;3.40;95.20
69679;DHT22;56915;52.046;4.854;2023-02-28T03:25:54;3.40;95.30
69679;DHT22;56915;52.046;4.854;2023-02-28T03:31:10;3.50;95.10
69679;DHT22;56915;52.046;4.854;2023-02-28T03:33:43;3.50;95.10
69679;DHT22;56915;52.046;4.854;2023-02-28T03:36:17;3.50;95.00
69679;DHT22;56915;52.046;4.854;2023-02-28T03:38:58;3.50;95.00
69679;DHT22;56915;52.046;4.854;2023-02-28T03:41:35;3.50;95.10
69679;DHT22;56915;52.046;4.854;2023-02-28T03:44:15;3.50;95.20
69679;DHT22;56915;52.046;4.854;2023-02-28T03:46:48;3.50;95.30
69679;DHT22;56915;52.046;4.854;2023-02-28T03:49:20;3.50;95.30
69679;DHT22;56915;52.046;4.854;2023-02-28T03:51:49;3.50;95.60
69679;DHT22;56915;52.046;4.854;2023-02-28T03:54:30;3.60;95.70
69679;DHT22;56915;52.046;4.854;2023-02-28T04:00:20;3.60;95.20
69679;DHT22;56915;52.046;4.854;2023-02-28T04:02:48;3.70;95.20
69679;DHT22;56915;52.046;4.854;2023-02-28T04:05:20;3.70;95.20
69679;DHT22;56915;52.046;4.854;2023-02-28T04:07:47;3.70;95.20
69679;DHT22;56915;52.046;4.854;2023-02-28T04:10:15;3.70;95.20
69679;DHT22;56915;52.046;4.854;2023-02-28T04:12:42;3.70;95.30
69679;DHT22;56915;52.046;4.854;2023-02-28T04:15:09;3.70;95.30
69679;DHT22;56915;52.046;4.854;2023-02-28T04:17:37;3.70;95.30
69679;DHT22;56915;52.046;4.854;2023-02-28T04:20:04;3.70;95.30
69679;DHT22;56915;52.046;4.854;2023-02-28T04:22:36;3.70;95.40
69679;DHT22;56915;52.046;4.854;2023-02-28T04:25:04;3.60;95.30
69679;DHT22;56915;52.046;4.854;2023-02-28T04:27:32;3.60;95.40
69679;DHT22;56915;52.046;4.854;2023-02-28T04:29:59;3.60;95.70
69679;DHT22;56915;52.046;4.854;2023-02-28T04:32:25;3.60;95.50
69679;DHT22;56915;52.046;4.854;2023-02-28T04:34:52;3.70;95.40
69679;DHT22;56915;52.046;4.854;2023-02-28T04:37:19;3.60;95.70
69679;DHT22;56915;52.046;4.854;2023-02-28T04:39:46;3.60;95.50
69679;DHT22;56915;52.046;4.854;2023-02-28T04:42:13;3.60;95.50
69679;DHT22;56915;52.046;4.854;2023-02-28T04:44:40;3.60;95.50
69679;DHT22;56915;52.046;4.854;2023-02-28T04:47:07;3.60;95.50
69679;DHT22;56915;52.046;4.854;2023-02-28T04:49:34;3.60;95.60
69679;DHT22;56915;52.046;4.854;2023-02-28T04:52:01;3.60;95.70
69679;DHT22;56915;52.046;4.854;2023-02-28T04:54:28;3.60;95.70
69679;DHT22;56915;52.046;4.854;2023-02-28T04:56:56;3.60;95.70
69679;DHT22;56915;52.046;4.854;2023-02-28T04:59:22;3.60;95.80
69679;DHT22;56915;52.046;4.854;2023-02-28T05:01:49;3.60;95.80
69679;DHT22;56915;52.046;4.854;2023-02-28T05:04:16;3.60;95.80
69679;DHT22;56915;52.046;4.854;2023-02-28T05:06:43;3.60;95.90
69679;DHT22;56915;52.046;4.854;2023-02-28T05:09:10;3.60;95.80
69679;DHT22;56915;52.046;4.854;2023-02-28T05:11:40;3.60;95.80
69679;DHT22;56915;52.046;4.854;2023-02-28T05:14:11;3.60;96.00
69679;DHT22;56915;52.046;4.854;2023-02-28T05:16:38;3.60;95.70
69679;DHT22;56915;52.046;4.854;2023-02-28T05:19:05;3.50;95.60
69679;DHT22;56915;52.046;4.854;2023-02-28T05:21:34;3.50;95.50
69679;DHT22;56915;52.046;4.854;2023-02-28T05:24:04;3.50;95.50
69679;DHT22;56915;52.046;4.854;2023-02-28T05:26:34;3.60;95.50
69679;DHT22;56915;52.046;4.854;2023-02-28T05:29:01;3.50;95.50
69679;DHT22;56915;52.046;4.854;2023-02-28T05:31:28;3.50;95.50
69679;DHT22;56915;52.046;4.854;2023-02-28T05:33:55;3.50;95.30
69679;DHT22;56915;52.046;4.854;2023-02-28T05:36:22;3.50;95.20
69679;DHT22;56915;52.046;4.854;2023-02-28T05:38:49;3.50;95.00
69679;DHT22;56915;52.046;4.854;2023-02-28T05:41:17;3.50;94.90
69679;DHT22;56915;52.046;4.854;2023-02-28T05:43:46;3.40;94.70
69679;DHT22;56915;52.046;4.854;2023-02-28T05:46:13;3.30;94.10
69679;DHT22;56915;52.046;4.854;2023-02-28T05:48:45;3.30;93.90
69679;DHT22;56915;52.046;4.854;2023-02-28T05:51:12;3.20;94.10
69679;DHT22;56915;52.046;4.854;2023-02-28T05:53:39;3.20;93.60
69679;DHT22;56915;52.046;4.854;2023-02-28T05:56:06;3.10;93.70
69679;DHT22;56915;52.046;4.854;2023-02-28T05:58:33;3.10;93.20
69679;DHT22;56915;52.046;4.854;2023-02-28T06:01:20;3.10;93.40
69679;DHT22;56915;52.046;4.854;2023-02-28T06:03:47;3.10;93.00
69679;DHT22;56915;52.046;4.854;2023-02-28T06:06:14;3.00;92.70
69679;DHT22;56915;52.046;4.854;2023-02-28T06:08:40;3.00;92.50
69679;DHT22;56915;52.046;4.854;2023-02-28T06:11:09;3.00;92.40
69679;DHT22;56915;52.046;4.854;2023-02-28T06:13:36;3.00;92.10
69679;DHT22;56915;52.046;4.854;2023-02-28T06:16:03;3.00;92.10
69679;DHT22;56915;52.046;4.854;2023-02-28T06:18:31;3.00;91.50
69679;DHT22;56915;52.046;4.854;2023-02-28T06:20:57;2.90;91.70
69679;DHT22;56915;52.046;4.854;2023-02-28T06:23:24;2.90;91.40
69679;DHT22;56915;52.046;4.854;2023-02-28T06:25:51;2.80;91.50
69679;DHT22;56915;52.046;4.854;2023-02-28T06:28:19;2.80;91.60
69679;DHT22;56915;52.046;4.854;2023-02-28T06:30:46;2.70;92.20
69679;DHT22;56915;52.046;4.854;2023-02-28T06:33:13;2.60;92.20
69679;DHT22;56915;52.046;4.854;2023-02-28T06:35:40;2.60;92.40
69679;DHT22;56915;52.046;4.854;2023-02-28T06:38:09;2.50;92.70
69679;DHT22;56915;52.046;4.854;2023-02-28T06:40:37;2.50;93.00
69679;DHT22;56915;52.046;4.854;2023-02-28T06:43:03;2.40;93.30
69679;DHT22;56915;52.046;4.854;2023-02-28T06:45:30;2.40;93.40
69679;DHT22;56915;52.046;4.854;2023-02-28T06:47:57;2.30;93.60
69679;DHT22;56915;52.046;4.854;2023-02-28T06:50:24;2.30;93.80
69679;DHT22;56915;52.046;4.854;2023-02-28T06:52:51;2.20;93.90
69679;DHT22;56915;52.046;4.854;2023-02-28T06:55:20;2.20;94.40
69679;DHT22;56915;52.046;4.854;2023-02-28T06:57:47;2.10;94.20
69679;DHT22;56915;52.046;4.854;2023-02-28T07:00:14;2.00;94.50
69679;DHT22;56915;52.046;4.854;2023-02-28T07:02:41;2.00;94.70
69679;DHT22;56915;52.046;4.854;2023-02-28T07:05:08;1.90;94.90
69679;DHT22;56915;52.046;4.854;2023-02-28T07:07:35;1.90;95.30
69679;DHT22;56915;52.046;4.854;2023-02-28T07:10:04;1.90;95.60
69679;DHT22;56915;52.046;4.854;2023-02-28T07:12:32;1.80;95.80
69679;DHT22;56915;52.046;4.854;2023-02-28T07:14:59;1.90;96.00
69679;DHT22;56915;52.046;4.854;2023-02-28T07:17:25;1.90;96.40
69679;DHT22;56915;52.046;4.854;2023-02-28T07:19:52;1.90;96.80
69679;DHT22;56915;52.046;4.854;2023-02-28T07:22:19;1.90;97.20
69679;DHT22;56915;52.046;4.854;2023-02-28T07:24:46;1.90;97.80
69679;DHT22;56915;52.046;4.854;2023-02-28T07:27:13;2.00;97.80
69679;DHT22;56915;52.046;4.854;2023-02-28T07:29:50;2.10;98.00
69679;DHT22;56915;52.046;4.854;2023-02-28T07:32:17;2.10;98.40
69679;DHT22;56915;52.046;4.854;2023-02-28T07:34:45;2.20;98.70
69679;DHT22;56915;52.046;4.854;2023-02-28T07:37:11;2.30;98.80
69679;DHT22;56915;52.046;4.854;2023-02-28T07:39:38;2.30;99.20
69679;DHT22;56915;52.046;4.854;2023-02-28T07:42:05;2.30;99.00
69679;DHT22;56915;52.046;4.854;2023-02-28T07:44:33;2.30;99.10
69679;DHT22;56915;52.046;4.854;2023-02-28T07:46:59;2.30;99.10
69679;DHT22;56915;52.046;4.854;2023-02-28T07:49:26;2.30;99.40
69679;DHT22;56915;52.046;4.854;2023-02-28T07:51:53;2.30;99.70
69679;DHT22;56915;52.046;4.854;2023-02-28T07:54:20;2.40;99.90
69679;DHT22;56915;52.046;4.854;2023-02-28T07:56:47;2.40;99.90
69679;DHT22;56915;52.046;4.854;2023-02-28T07:59:13;2.40;99.90
69679;DHT22;56915;52.046;4.854;2023-02-28T08:01:40;2.30;99.90
69679;DHT22;56915;52.046;4.854;2023-02-28T08:04:07;2.30;99.90
69679;DHT22;56915;52.046;4.854;2023-02-28T08:06:34;2.20;99.90
69679;DHT22;56915;52.046;4.854;2023-02-28T08:09:01;2.20;99.90
69679;DHT22;56915;52.046;4.854;2023-02-28T08:11:28;2.20;99.90
69679;DHT22;56915;52.046;4.854;2023-02-28T08:13:55;2.30;99.90
69679;DHT22;56915;52.046;4.854;2023-02-28T08:16:22;2.30;99.90
69679;DHT22;56915;52.046;4.854;2023-02-28T08:18:52;2.30;99.90
69679;DHT22;56915;52.046;4.854;2023-02-28T08:21:20;2.40;99.90
69679;DHT22;56915;52.046;4.854;2023-02-28T08:23:48;2.40;99.90
69679;DHT22;56915;52.046;4.854;2023-02-28T08:26:16;2.40;99.90
69679;DHT22;56915;52.046;4.854;2023-02-28T08:28:44;2.50;99.90
69679;DHT22;56915;52.046;4.854;2023-02-28T08:31:13;2.50;99.90
69679;DHT22;56915;52.046;4.854;2023-02-28T08:33:41;2.50;99.90
69679;DHT22;56915;52.046;4.854;2023-02-28T08:36:09;2.50;99.90
69679;DHT22;56915;52.046;4.854;2023-02-28T08:38:37;2.60;99.90
69679;DHT22;56915;52.046;4.854;2023-02-28T08:41:07;2.60;99.90
69679;DHT22;56915;52.046;4.854;2023-02-28T08:43:35;2.60;99.90
69679;DHT22;56915;52.046;4.854;2023-02-28T08:46:03;2.60;99.90
69679;DHT22;56915;52.046;4.854;2023-02-28T08:48:32;2.60;99.90
69679;DHT22;56915;52.046;4.854;2023-02-28T08:51:04;2.80;99.90
69679;DHT22;56915;52.046;4.854;2023-02-28T08:53:35;2.90;99.90
69679;DHT22;56915;52.046;4.854;2023-02-28T08:56:13;3.10;99.90
69679;DHT22;56915;52.046;4.854;2023-02-28T08:58:40;3.20;99.90
69679;DHT22;56915;52.046;4.854;2023-02-28T09:01:10;3.30;99.90
69679;DHT22;56915;52.046;4.854;2023-02-28T09:03:39;3.50;99.90
69679;DHT22;56915;52.046;4.854;2023-02-28T09:06:08;3.60;99.90
69679;DHT22;56915;52.046;4.854;2023-02-28T09:08:36;3.90;99.90
69679;DHT22;56915;52.046;4.854;2023-02-28T09:11:03;4.10;99.90
69679;DHT22;56915;52.046;4.854;2023-02-28T09:13:30;4.20;99.90
69679;DHT22;56915;52.046;4.854;2023-02-28T09:15:59;4.30;99.90
69679;DHT22;56915;52.046;4.854;2023-02-28T09:18:27;4.50;99.90
69679;DHT22;56915;52.046;4.854;2023-02-28T09:20:54;4.70;99.90
69679;DHT22;56915;52.046;4.854;2023-02-28T09:23:21;5.00;99.90
69679;DHT22;56915;52.046;4.854;2023-02-28T09:25:51;5.10;99.90
69679;DHT22;56915;52.046;4.854;2023-02-28T09:28:18;5.20;99.90
69679;DHT22;56915;52.046;4.854;2023-02-28T09:30:50;5.20;99.90
69679;DHT22;56915;52.046;4.854;2023-02-28T09:33:18;5.20;99.90
69679;DHT22;56915;52.046;4.854;2023-02-28T09:35:51;5.10;99.90
69679;DHT22;56915;52.046;4.854;2023-02-28T09:38:24;5.20;99.90
69679;DHT22;56915;52.046;4.854;2023-02-28T09:40:55;5.20;99.90
69679;DHT22;56915;52.046;4.854;2023-02-28T09:43:26;5.20;99.90
69679;DHT22;56915;52.046;4.854;2023-02-28T09:46:14;5.30;99.90
69679;DHT22;56915;52.046;4.854;2023-02-28T09:48:46;5.40;99.90
69679;DHT22;56915;52.046;4.854;2023-02-28T09:51:30;5.50;99.90
69679;DHT22;56915;52.046;4.854;2023-02-28T09:54:00;5.50;99.90
69679;DHT22;56915;52.046;4.854;2023-02-28T09:56:33;5.70;99.90
69679;DHT22;56915;52.046;4.854;2023-02-28T10:02:10;6.10;99.90
69679;DHT22;56915;52.046;4.854;2023-02-28T10:04:45;6.30;99.90
69679;DHT22;56915;52.046;4.854;2023-02-28T10:12:54;6.50;99.90
69679;DHT22;56915;52.046;4.854;2023-02-28T10:15:23;6.50;99.90
69679;DHT22;56915;52.046;4.854;2023-02-28T10:17:58;6.50;99.90
69679;DHT22;56915;52.046;4.854;2023-02-28T10:20:38;6.70;98.80
69679;DHT22;56915;52.046;4.854;2023-02-28T10:23:28;6.80;97.40
69679;DHT22;56915;52.046;4.854;2023-02-28T10:26:11;7.00;96.10
69679;DHT22;56915;52.046;4.854;2023-02-28T10:28:39;7.30;97.20
69679;DHT22;56915;52.046;4.854;2023-02-28T10:31:14;7.60;96.40
69679;DHT22;56915;52.046;4.854;2023-02-28T10:33:43;7.70;95.00
69679;DHT22;56915;52.046;4.854;2023-02-28T10:36:15;7.80;93.10
69679;DHT22;56915;52.046;4.854;2023-02-28T10:38:44;7.90;93.30
69679;DHT22;56915;52.046;4.854;2023-02-28T10:41:17;7.90;90.80
69679;DHT22;56915;52.046;4.854;2023-02-28T10:44:12;7.80;90.50
69679;DHT22;56915;52.046;4.854;2023-02-28T10:46:40;7.80;90.00
69679;DHT22;56915;52.046;4.854;2023-02-28T10:49:21;7.70;88.30
69679;DHT22;56915;52.046;4.854;2023-02-28T10:51:52;7.60;80.00
69679;DHT22;56915;52.046;4.854;2023-02-28T10:54:31;7.50;74.70
69679;DHT22;56915;52.046;4.854;2023-02-28T10:57:28;7.30;70.90
69679;DHT22;56915;52.046;4.854;2023-02-28T11:02:39;7.10;68.40
69679;DHT22;56915;52.046;4.854;2023-02-28T11:05:29;6.90;68.80
69679;DHT22;56915;52.046;4.854;2023-02-28T11:08:06;6.90;69.60
69679;DHT22;56915;52.046;4.854;2023-02-28T11:10:37;7.00;70.30
69679;DHT22;56915;52.046;4.854;2023-02-28T11:13:05;7.20;67.50
69679;DHT22;56915;52.046;4.854;2023-02-28T11:15:33;7.40;65.30
69679;DHT22;56915;52.046;4.854;2023-02-28T11:20:39;8.00;67.50
69679;DHT22;56915;52.046;4.854;2023-02-28T11:23:12;8.50;66.80
69679;DHT22;56915;52.046;4.854;2023-02-28T11:25:47;8.80;65.50
69679;DHT22;56915;52.046;4.854;2023-02-28T11:33:53;9.40;62.50
69679;DHT22;56915;52.046;4.854;2023-02-28T11:36:30;9.60;58.60
69679;DHT22;56915;52.046;4.854;2023-02-28T11:39:09;9.50;57.80
69679;DHT22;56915;52.046;4.854;2023-02-28T11:50:38;8.70;52.70
69679;DHT22;56915;52.046;4.854;2023-02-28T11:56:09;8.00;54.20
69679;DHT22;56915;52.046;4.854;2023-02-28T12:04:24;7.60;53.80
69679;DHT22;56915;52.046;4.854;2023-02-28T12:09:45;7.40;54.00
69679;DHT22;56915;52.046;4.854;2023-02-28T12:20:33;7.20;51.50
69679;DHT22;56915;52.046;4.854;2023-02-28T12:28:42;7.20;50.30
69679;DHT22;56915;52.046;4.854;2023-02-28T12:31:33;7.20;50.20
69679;DHT22;56915;52.046;4.854;2023-02-28T12:34:05;7.10;49.50
69679;DHT22;56915;52.046;4.854;2023-02-28T12:36:34;7.10;49.60
69679;DHT22;56915;52.046;4.854;2023-02-28T12:39:20;7.20;49.40
69679;DHT22;56915;52.046;4.854;2023-02-28T12:42:07;7.20;49.20
69679;DHT22;56915;52.046;4.854;2023-02-28T12:45:31;7.20;49.20
69679;DHT22;56915;52.046;4.854;2023-02-28T12:47:52;7.20;48.90
69679;DHT22;56915;52.046;4.854;2023-02-28T12:50:23;7.20;48.40
69679;DHT22;56915;52.046;4.854;2023-02-28T12:52:58;7.20;48.90
69679;DHT22;56915;52.046;4.854;2023-02-28T13:09:18;7.40;47.80
69679;DHT22;56915;52.046;4.854;2023-02-28T13:11:50;7.40;48.20
69679;DHT22;56915;52.046;4.854;2023-02-28T13:14:25;7.50;49.00
69679;DHT22;56915;52.046;4.854;2023-02-28T13:16:55;7.50;47.50
69679;DHT22;56915;52.046;4.854;2023-02-28T13:19:26;7.50;46.60
69679;DHT22;56915;52.046;4.854;2023-02-28T13:21:55;7.60;46.50
69679;DHT22;56915;52.046;4.854;2023-02-28T13:24:50;7.60;47.60
69679;DHT22;56915;52.046;4.854;2023-02-28T13:29:44;7.60;44.80
69679;DHT22;56915;52.046;4.854;2023-02-28T13:34:41;7.60;43.30
69679;DHT22;56915;52.046;4.854;2023-02-28T13:42:24;7.70;44.30
69679;DHT22;56915;52.046;4.854;2023-02-28T13:47:40;7.80;44.00
69679;DHT22;56915;52.046;4.854;2023-02-28T13:50:31;7.80;42.60
69679;DHT22;56915;52.046;4.854;2023-02-28T13:56:03;7.80;42.90
69679;DHT22;56915;52.046;4.854;2023-02-28T14:04:09;7.80;42.30
69679;DHT22;56915;52.046;4.854;2023-02-28T14:06:40;7.80;41.20
69679;DHT22;56915;52.046;4.854;2023-02-28T14:09:27;7.80;40.80
69679;DHT22;56915;52.046;4.854;2023-02-28T14:11:55;7.70;41.10
69679;DHT22;56915;52.046;4.854;2023-02-28T14:17:06;7.60;40.40
69679;DHT22;56915;52.046;4.854;2023-02-28T14:19:36;7.60;40.30
69679;DHT22;56915;52.046;4.854;2023-02-28T14:22:52;7.60;39.90
69679;DHT22;56915;52.046;4.854;2023-02-28T14:27:53;7.60;40.60
69679;DHT22;56915;52.046;4.854;2023-02-28T14:33:57;7.80;41.20
69679;DHT22;56915;52.046;4.854;2023-02-28T14:36:33;7.80;41.40
69679;DHT22;56915;52.046;4.854;2023-02-28T14:39:06;7.80;41.20
69679;DHT22;56915;52.046;4.854;2023-02-28T14:41:36;7.90;41.60
69679;DHT22;56915;52.046;4.854;2023-02-28T14:44:25;7.90;41.50
69679;DHT22;56915;52.046;4.854;2023-02-28T14:47:00;7.90;42.20
69679;DHT22;56915;52.046;4.854;2023-02-28T14:49:44;7.90;41.20
69679;DHT22;56915;52.046;4.854;2023-02-28T14:54:39;7.90;41.00
69679;DHT22;56915;52.046;4.854;2023-02-28T14:57:19;7.80;40.00
69679;DHT22;56915;52.046;4.854;2023-02-28T15:00:14;7.70;38.50
69679;DHT22;56915;52.046;4.854;2023-02-28T15:02:41;7.60;39.20
69679;DHT22;56915;52.046;4.854;2023-02-28T15:07:45;7.60;39.20
69679;DHT22;56915;52.046;4.854;2023-02-28T15:10:20;7.60;40.30
69679;DHT22;56915;52.046;4.854;2023-02-28T15:12:57;7.70;39.50
69679;DHT22;56915;52.046;4.854;2023-02-28T15:15:42;7.70;39.50
69679;DHT22;56915;52.046;4.854;2023-02-28T15:18:33;7.70;39.40
69679;DHT22;56915;52.046;4.854;2023-02-28T15:21:18;7.70;39.50
69679;DHT22;56915;52.046;4.854;2023-02-28T15:23:59;7.70;39.10
69679;DHT22;56915;52.046;4.854;2023-02-28T15:26:33;7.70;38.30
69679;DHT22;56915;52.046;4.854;2023-02-28T15:29:11;7.60;38.60
69679;DHT22;56915;52.046;4.854;2023-02-28T15:31:43;7.60;38.80
69679;DHT22;56915;52.046;4.854;2023-02-28T15:34:40;7.50;37.50
69679;DHT22;56915;52.046;4.854;2023-02-28T15:39:53;7.30;35.70
69679;DHT22;56915;52.046;4.854;2023-02-28T15:42:22;7.20;40.10
69679;DHT22;56915;52.046;4.854;2023-02-28T15:44:49;7.00;41.10
69679;DHT22;56915;52.046;4.854;2023-02-28T15:47:20;6.90;43.20
69679;DHT22;56915;52.046;4.854;2023-02-28T15:50:10;6.80;44.80
69679;DHT22;56915;52.046;4.854;2023-02-28T15:52:42;6.70;45.30
69679;DHT22;56915;52.046;4.854;2023-02-28T15:57:47;6.50;46.60
69679;DHT22;56915;52.046;4.854;2023-02-28T16:00:20;6.40;48.20
69679;DHT22;56915;52.046;4.854;2023-02-28T16:02:47;6.30;49.50
69679;DHT22;56915;52.046;4.854;2023-02-28T16:05:26;6.30;48.60
69679;DHT22;56915;52.046;4.854;2023-02-28T16:08:06;6.20;49.60
69679;DHT22;56915;52.046;4.854;2023-02-28T16:10:37;6.10;49.90
69679;DHT22;56915;52.046;4.854;2023-02-28T16:13:04;6.00;50.50
69679;DHT22;56915;52.046;4.854;2023-02-28T16:15:37;6.00;51.50
69679;DHT22;56915;52.046;4.854;2023-02-28T16:18:10;5.90;52.20
69679;DHT22;56915;52.046;4.854;2023-02-28T16:20:37;5.90;52.90
69679;DHT22;56915;52.046;4.854;2023-02-28T16:23:04;5.80;53.10
69679;DHT22;56915;52.046;4.854;2023-02-28T16:25:37;5.70;53.30
69679;DHT22;56915;52.046;4.854;2023-02-28T16:28:20;5.60;53.30
69679;DHT22;56915;52.046;4.854;2023-02-28T16:30:48;5.60;53.40
69679;DHT22;56915;52.046;4.854;2023-02-28T16:33:17;5.50;53.50
69679;DHT22;56915;52.046;4.854;2023-02-28T16:35:56;5.40;53.90
69679;DHT22;56915;52.046;4.854;2023-02-28T16:38:22;5.40;54.40
69679;DHT22;56915;52.046;4.854;2023-02-28T16:40:53;5.30;54.80
69679;DHT22;56915;52.046;4.854;2023-02-28T16:43:23;5.20;55.20
69679;DHT22;56915;52.046;4.854;2023-02-28T16:45:58;5.10;55.70
69679;DHT22;56915;52.046;4.854;2023-02-28T16:48:27;5.10;56.20
69679;DHT22;56915;52.046;4.854;2023-02-28T16:50:54;5.00;56.70
69679;DHT22;56915;52.046;4.854;2023-02-28T16:53:20;4.90;57.00
69679;DHT22;56915;52.046;4.854;2023-02-28T16:55:47;4.80;57.30
69679;DHT22;56915;52.046;4.854;2023-02-28T16:58:15;4.70;57.60
69679;DHT22;56915;52.046;4.854;2023-02-28T17:00:42;4.70;57.90
69679;DHT22;56915;52.046;4.854;2023-02-28T17:03:26;4.60;58.20
69679;DHT22;56915;52.046;4.854;2023-02-28T17:05:59;4.50;58.50
69679;DHT22;56915;52.046;4.854;2023-02-28T17:08:26;4.40;59.90
69679;DHT22;56915;52.046;4.854;2023-02-28T17:10:55;4.40;59.40
69679;DHT22;56915;52.046;4.854;2023-02-28T17:13:22;4.30;59.80
69679;DHT22;56915;52.046;4.854;2023-02-28T17:15:49;4.30;60.30
69679;DHT22;56915;52.046;4.854;2023-02-28T17:18:18;4.20;60.70
69679;DHT22;56915;52.046;4.854;2023-02-28T17:20:46;4.10;61.10
69679;DHT22;56915;52.046;4.854;2023-02-28T17:23:13;4.00;62.40
69679;DHT22;56915;52.046;4.854;2023-02-28T17:25:39;3.90;62.30
69679;DHT22;56915;52.046;4.854;2023-02-28T17:28:08;3.90;62.90
69679;DHT22;56915;52.046;4.854;2023-02-28T17:30:35;3.80;63.50
69679;DHT22;56915;52.046;4.854;2023-02-28T17:33:02;3.70;64.10
69679;DHT22;56915;52.046;4.854;2023-02-28T17:35:29;3.70;64.80
69679;DHT22;56915;52.046;4.854;2023-02-28T17:37:56;3.60;65.70
69679;DHT22;56915;52.046;4.854;2023-02-28T17:40:23;3.60;66.50
69679;DHT22;56915;52.046;4.854;2023-02-28T17:42:50;3.50;66.80
69679;DHT22;56915;52.046;4.854;2023-02-28T17:45:19;3.40;68.30
69679;DHT22;56915;52.046;4.854;2023-02-28T17:47:48;3.30;67.80
69679;DHT22;56915;52.046;4.854;2023-02-28T17:50:20;3.20;69.00
69679;DHT22;56915;52.046;4.854;2023-02-28T17:52:47;3.20;69.90
69679;DHT22;56915;52.046;4.854;2023-02-28T17:55:14;3.10;70.40
69679;DHT22;56915;52.046;4.854;2023-02-28T17:57:41;3.10;71.10
69679;DHT22;56915;52.046;4.854;2023-02-28T18:00:11;3.00;71.50
69679;DHT22;56915;52.046;4.854;2023-02-28T18:02:39;2.90;72.40
69679;DHT22;56915;52.046;4.854;2023-02-28T18:05:07;2.90;73.60
69679;DHT22;56915;52.046;4.854;2023-02-28T18:07:36;2.80;75.00
69679;DHT22;56915;52.046;4.854;2023-02-28T18:10:03;2.80;76.40
69679;DHT22;56915;52.046;4.854;2023-02-28T18:12:30;2.70;77.50
69679;DHT22;56915;52.046;4.854;2023-02-28T18:14:57;2.70;77.20
69679;DHT22;56915;52.046;4.854;2023-02-28T18:17:24;2.60;78.20
69679;DHT22;56915;52.046;4.854;2023-02-28T18:19:51;2.60;79.10
69679;DHT22;56915;52.046;4.854;2023-02-28T18:22:18;2.50;80.10
69679;DHT22;56915;52.046;4.854;2023-02-28T18:24:44;2.50;80.70
69679;DHT22;56915;52.046;4.854;2023-02-28T18:27:11;2.50;82.10
69679;DHT22;56915;52.046;4.854;2023-02-28T18:29:38;2.40;83.60